Time;durP1;ratioP1;P1;durP2;ratioP2;P2;SDS_P1;SDS_P2;PMS_P1;PMS_P2;Temp;Humidity;BMP_temperature;BMP_pressure;BME280_temperature;BME280_humidity;BME280_pressure;Samples;Min_cycle;Max_cycle;Signal;HPM_P1;HPM_P2
2024/01/16 00:01:01;;;;;;;2.60;0.80;;;0.40;99.90;;;;;;5042622;28;20206;-67
2024/01/16 00:03:29;;;;;;;3.53;0.70;;;0.50;99.90;;;;;;5034919;28;20317;-67
2024/01/16 00:05:56;;;;;;;1.10;0.80;;;0.40;99.90;;;;;;5029368;28;20205;-67
2024/01/16 00:08:23;;;;;;;0.60;0.60;;;;;;;;;;5022969;28;20214;-67
2024/01/16 00:10:50;;;;;;;1.17;0.83;;;0.80;99.90;;;;;;5041161;28;20207;-67
2024/01/16 00:13:17;;;;;;;0.70;0.67;;;0.90;99.90;;;;;;5013876;28;20224;-67
2024/01/16 00:15:44;;;;;;;0.60;0.30;;;0.80;99.90;;;;;;5037703;28;20731;-67
2024/01/16 00:18:11;;;;;;;1.23;0.60;;;1.00;99.90;;;;;;5038374;28;20674;-67
2024/01/16 00:20:39;;;;;;;1.70;0.50;;;0.80;99.90;;;;;;5040041;28;20237;-67
2024/01/16 00:23:06;;;;;;;0.97;0.60;;;0.80;99.90;;;;;;5028569;28;20204;-67
2024/01/16 00:25:33;;;;;;;0.93;0.60;;;0.80;99.90;;;;;;5028365;28;20295;-67
2024/01/16 00:28:00;;;;;;;0.80;0.40;;;0.80;99.90;;;;;;5034320;28;20199;-67
2024/01/16 00:30:27;;;;;;;0.63;0.40;;;0.60;99.90;;;;;;5012756;28;20222;-67
2024/01/16 00:32:54;;;;;;;1.10;0.77;;;0.60;99.90;;;;;;5036732;28;20205;-67
2024/01/16 00:35:21;;;;;;;1.27;0.77;;;0.50;99.90;;;;;;5041749;28;20315;-67
2024/01/16 00:37:49;;;;;;;0.70;0.50;;;0.20;99.90;;;;;;5032397;28;20205;-67
2024/01/16 00:40:16;;;;;;;2.67;0.47;;;1.10;99.90;;;;;;5028686;28;20230;-67
2024/01/16 00:42:42;;;;;;;2.73;0.80;;;0.30;99.90;;;;;;5041175;28;20654;-67
2024/01/16 00:45:09;;;;;;;0.53;0.47;;;0.40;99.90;;;;;;5011677;28;20216;-67
2024/01/16 00:47:36;;;;;;;3.03;0.40;;;0.20;99.90;;;;;;5034212;28;20230;-67
2024/01/16 00:50:03;;;;;;;0.67;0.50;;;0.20;99.90;;;;;;5042064;28;20216;-67
2024/01/16 00:52:30;;;;;;;1.13;0.40;;;0.30;99.90;;;;;;5041726;28;20193;-67
2024/01/16 00:54:59;;;;;;;1.80;0.30;;;0.20;99.90;;;;;;5035242;28;20211;-67
2024/01/16 00:57:26;;;;;;;0.60;0.60;;;;;;;;;;5029245;28;20297;-67
2024/01/16 00:59:53;;;;;;;0.40;0.40;;;0.40;99.90;;;;;;5019564;28;20234;-67
2024/01/16 01:02:20;;;;;;;0.43;0.40;;;0.30;99.90;;;;;;5040847;28;20209;-67
2024/01/16 01:04:47;;;;;;;2.40;0.53;;;0.10;99.90;;;;;;5035088;28;20275;-67
2024/01/16 01:07:15;;;;;;;1.47;0.43;;;0.10;99.90;;;;;;5045708;28;20212;-67
2024/01/16 01:09:42;;;;;;;1.43;0.50;;;0.20;99.90;;;;;;5034342;28;20936;-67
2024/01/16 01:12:10;;;;;;;0.40;0.40;;;0.10;99.90;;;;;;5034389;28;20349;-67
2024/01/16 01:14:37;;;;;;;2.43;0.80;;;-0.20;99.90;;;;;;5040572;28;20231;-67
2024/01/16 01:17:05;;;;;;;0.60;0.60;;;0.20;99.90;;;;;;5011548;28;20245;-67
2024/01/16 01:19:31;;;;;;;0.53;0.53;;;0.30;99.90;;;;;;5028570;28;20219;-67
2024/01/16 01:21:59;;;;;;;4.60;0.50;;;0.30;99.90;;;;;;5050013;28;20203;-67
2024/01/16 01:24:25;;;;;;;0.20;0.20;;;0.40;99.90;;;;;;5044029;28;20207;-67
2024/01/16 01:26:52;;;;;;;1.43;0.47;;;0.40;99.90;;;;;;5030353;28;20208;-67
2024/01/16 01:29:21;;;;;;;2.00;0.60;;;0.50;99.90;;;;;;5039311;28;20262;-67
2024/01/16 01:31:48;;;;;;;1.17;0.47;;;0.40;99.90;;;;;;5014168;28;20211;-67
2024/01/16 01:34:16;;;;;;;0.40;0.37;;;;;;;;;;5041757;28;20655;-67
2024/01/16 01:36:43;;;;;;;1.67;0.37;;;0.50;99.90;;;;;;5035644;28;20233;-67
2024/01/16 01:39:11;;;;;;;0.80;0.40;;;0.50;99.90;;;;;;5034959;28;20238;-66
2024/01/16 01:41:38;;;;;;;5.00;0.60;;;0.50;99.90;;;;;;5027427;28;20223;-67
2024/01/16 01:44:06;;;;;;;4.40;0.33;;;0.60;99.90;;;;;;5027970;28;20210;-67
2024/01/16 01:46:36;;;;;;;1.00;0.33;;;0.70;99.90;;;;;;5036609;28;20239;-67
2024/01/16 01:49:04;;;;;;;1.87;0.70;;;0.60;99.90;;;;;;5013042;28;20208;-66
2024/01/16 01:51:31;;;;;;;0.80;0.30;;;0.50;99.90;;;;;;5029622;28;20216;-67
2024/01/16 01:53:59;;;;;;;0.53;0.47;;;0.60;99.90;;;;;;5039264;28;20304;-67
2024/01/16 01:56:27;;;;;;;0.30;0.30;;;0.70;99.90;;;;;;5035005;28;20734;-67
2024/01/16 01:58:57;;;;;;;3.80;0.40;;;0.70;99.90;;;;;;5032863;28;20207;-66
2024/01/16 02:01:29;;;;;;;0.50;0.50;;;0.60;99.90;;;;;;5034235;28;20202;-67
2024/01/16 02:03:58;;;;;;;0.53;0.43;;;0.60;99.90;;;;;;5014542;28;20213;-67
2024/01/16 02:06:24;;;;;;;3.60;0.40;;;0.50;99.90;;;;;;5030341;28;20229;-67
2024/01/16 02:08:52;;;;;;;0.10;0.10;;;0.60;99.90;;;;;;5038001;28;20220;-67
2024/01/16 02:11:19;;;;;;;0.93;0.30;;;-0.70;99.90;;;;;;5045041;28;20980;-67
2024/01/16 02:13:46;;;;;;;0.87;0.50;;;;;;;;;;5021591;28;20321;-67
2024/01/16 02:16:20;;;;;;;1.03;0.40;;;0.70;99.90;;;;;;5038976;28;20315;-67
2024/01/16 02:18:47;;;;;;;2.10;0.40;;;1.20;99.90;;;;;;5006484;28;20214;-67
2024/01/16 02:21:18;;;;;;;0.90;0.50;;;0.60;99.90;;;;;;5037270;28;20227;-67
2024/01/16 02:23:47;;;;;;;3.90;0.70;;;0.40;99.90;;;;;;5038002;28;20198;-67
2024/01/16 02:26:15;;;;;;;4.23;0.60;;;0.30;99.90;;;;;;5037105;28;20674;-67
2024/01/16 02:28:42;;;;;;;2.43;0.87;;;0.20;99.90;;;;;;5028365;28;20208;-67
2024/01/16 02:31:08;;;;;;;0.80;0.70;;;0.40;99.90;;;;;;5025858;28;20215;-67
2024/01/16 02:33:35;;;;;;;3.30;0.87;;;0.10;99.90;;;;;;5008663;28;20697;-67
2024/01/16 02:36:02;;;;;;;1.13;0.53;;;0.30;99.90;;;;;;5028791;28;20216;-67
2024/01/16 02:38:29;;;;;;;3.53;0.70;;;0.20;99.90;;;;;;5036021;28;20325;-67
2024/01/16 02:40:57;;;;;;;1.80;0.87;;;0.20;99.90;;;;;;5035799;28;20228;-67
2024/01/16 02:43:26;;;;;;;0.20;0.20;;;0.10;99.90;;;;;;5023665;28;20297;-67
2024/01/16 02:45:53;;;;;;;0.30;0.30;;;0.00;99.90;;;;;;5030601;28;20343;-67
2024/01/16 02:48:20;;;;;;;0.47;0.40;;;0.20;99.90;;;;;;5006569;28;20211;-67
2024/01/16 02:50:48;;;;;;;0.60;0.50;;;0.20;99.90;;;;;;5038226;28;20202;-67
2024/01/16 02:53:14;;;;;;;3.60;0.83;;;0.10;99.90;;;;;;5030527;28;20608;-67
2024/01/16 02:55:41;;;;;;;2.53;0.53;;;0.10;99.90;;;;;;5035099;28;20239;-67
2024/01/16 02:58:10;;;;;;;1.53;0.70;;;0.10;99.90;;;;;;5040682;28;20201;-67
2024/01/16 03:00:37;;;;;;;1.53;0.70;;;0.00;99.90;;;;;;5024088;28;20237;-67
2024/01/16 03:03:04;;;;;;;4.30;0.90;;;0.80;99.90;;;;;;5013470;28;20200;-67
2024/01/16 03:05:31;;;;;;;1.50;0.67;;;0.10;99.90;;;;;;5016502;28;20299;-67
2024/01/16 03:07:58;;;;;;;3.77;0.77;;;-0.10;99.90;;;;;;5033347;28;20204;-67
2024/01/16 03:10:25;;;;;;;1.00;0.60;;;0.50;99.90;;;;;;5031794;28;20233;-67
2024/01/16 03:12:52;;;;;;;1.93;0.60;;;0.00;99.90;;;;;;5039632;28;20245;-67
2024/01/16 03:15:21;;;;;;;3.93;0.70;;;0.00;99.90;;;;;;5029870;28;20201;-67
2024/01/16 03:17:48;;;;;;;3.00;0.97;;;2.00;99.90;;;;;;5034123;28;20214;-67
2024/01/16 03:20:15;;;;;;;3.90;0.70;;;0.00;99.90;;;;;;5007046;28;20214;-66
2024/01/16 03:22:42;;;;;;;3.33;1.10;;;0.20;99.90;;;;;;5037974;28;21042;-67
2024/01/16 03:25:12;;;;;;;3.50;0.80;;;0.20;99.90;;;;;;5021864;28;21088;-67
2024/01/16 03:27:39;;;;;;;7.80;0.87;;;0.10;99.90;;;;;;5040004;28;20209;-67
2024/01/16 03:30:08;;;;;;;6.77;1.20;;;1.70;99.90;;;;;;5030099;28;20202;-67
2024/01/16 03:32:36;;;;;;;0.70;0.53;;;0.00;99.90;;;;;;5037397;28;20228;-67
2024/01/16 03:35:03;;;;;;;0.63;0.60;;;-0.30;99.90;;;;;;5001594;28;20215;-67
2024/01/16 03:37:30;;;;;;;3.83;1.33;;;0.00;99.90;;;;;;5031254;28;20214;-67
2024/01/16 03:39:57;;;;;;;0.70;0.70;;;;;;;;;;5027436;28;20228;-66
2024/01/16 03:42:24;;;;;;;3.10;0.67;;;-0.10;99.90;;;;;;5029626;28;20395;-66
2024/01/16 03:44:51;;;;;;;0.73;0.70;;;-0.10;99.90;;;;;;5045263;28;20225;-67
2024/01/16 03:47:19;;;;;;;3.47;0.90;;;-0.20;99.90;;;;;;5023901;28;21123;-66
2024/01/16 03:49:47;;;;;;;2.60;0.63;;;-0.10;99.90;;;;;;5028482;28;20201;-66
2024/01/16 03:52:14;;;;;;;2.83;0.93;;;-0.20;99.90;;;;;;5008128;28;20690;-67
2024/01/16 03:54:41;;;;;;;0.70;0.50;;;-0.20;99.90;;;;;;5029414;28;20570;-67
2024/01/16 03:57:08;;;;;;;3.30;1.07;;;;;;;;;;5033134;28;20207;-67
2024/01/16 03:59:38;;;;;;;1.73;0.60;;;-0.30;99.90;;;;;;5041710;28;20286;-66
2024/01/16 04:02:05;;;;;;;3.90;0.87;;;-0.30;99.90;;;;;;5022277;28;20224;-67
2024/01/16 04:04:31;;;;;;;1.27;0.77;;;0.60;99.90;;;;;;5029992;28;20218;-67
2024/01/16 04:07:00;;;;;;;1.43;0.80;;;-0.20;99.90;;;;;;5006979;28;21058;-66
2024/01/16 04:09:26;;;;;;;5.87;0.83;;;-0.30;99.90;;;;;;5030863;28;20586;-66
2024/01/16 04:11:53;;;;;;;8.23;1.20;;;-0.30;99.90;;;;;;5043292;28;20206;-66
2024/01/16 04:14:21;;;;;;;2.33;0.80;;;-0.10;99.90;;;;;;5032631;28;20740;-67
2024/01/16 04:16:48;;;;;;;0.43;0.43;;;-0.90;99.90;;;;;;5043703;28;20213;-67
2024/01/16 04:19:15;;;;;;;3.80;0.90;;;-0.10;99.90;;;;;;5027093;28;20206;-66
2024/01/16 04:21:42;;;;;;;4.37;0.93;;;-0.30;99.90;;;;;;5002928;28;21066;-67
2024/01/16 04:24:10;;;;;;;1.73;0.77;;;-0.20;99.90;;;;;;5042966;28;20281;-67
2024/01/16 04:26:38;;;;;;;0.73;0.73;;;-0.20;99.90;;;;;;5034207;28;20215;-66
2024/01/16 04:29:04;;;;;;;5.40;1.07;;;-0.30;99.90;;;;;;5034638;28;20396;-66
2024/01/16 04:31:32;;;;;;;5.10;0.50;;;-0.30;99.90;;;;;;5036974;28;21137;-66
2024/01/16 04:33:59;;;;;;;1.00;0.73;;;-0.10;99.90;;;;;;5026191;28;22604;-66
2024/01/16 04:36:26;;;;;;;0.40;0.40;;;-0.30;99.90;;;;;;5030310;28;20847;-66
2024/01/16 04:38:53;;;;;;;5.50;0.70;;;-0.30;99.90;;;;;;5007836;28;20208;-66
2024/01/16 04:41:21;;;;;;;2.87;0.53;;;-0.30;99.90;;;;;;5025120;28;20369;-66
2024/01/16 04:43:48;;;;;;;5.20;0.90;;;-0.20;99.90;;;;;;5040487;28;20234;-66
2024/01/16 04:46:15;;;;;;;1.90;0.80;;;-0.20;99.90;;;;;;5031600;28;20233;-66
2024/01/16 04:48:42;;;;;;;1.33;0.73;;;-1.40;99.90;;;;;;5016207;28;20206;-66
2024/01/16 04:51:09;;;;;;;1.60;0.50;;;-0.30;99.90;;;;;;5032004;28;20211;-66
2024/01/16 04:53:36;;;;;;;0.80;0.70;;;-0.30;99.90;;;;;;5006917;28;20586;-67
2024/01/16 04:56:03;;;;;;;4.50;0.60;;;0.20;99.90;;;;;;5035160;28;20200;-66
2024/01/16 04:58:31;;;;;;;1.03;0.50;;;-0.20;99.90;;;;;;5016619;28;20259;-66
2024/01/16 05:00:58;;;;;;;2.30;0.73;;;0.00;99.90;;;;;;5034410;28;20222;-66
2024/01/16 05:03:25;;;;;;;0.90;0.47;;;-0.10;99.90;;;;;;5007975;28;20600;-66
2024/01/16 05:05:52;;;;;;;3.87;0.70;;;-0.10;99.90;;;;;;5037845;28;20193;-66
2024/01/16 05:08:18;;;;;;;3.30;0.93;;;-0.10;99.90;;;;;;5026555;28;20293;-66
2024/01/16 05:10:45;;;;;;;1.07;0.40;;;0.00;99.90;;;;;;5010350;28;20827;-66
2024/01/16 05:13:12;;;;;;;1.37;0.60;;;-0.10;99.90;;;;;;5028942;28;20212;-66
2024/01/16 05:15:42;;;;;;;4.23;0.93;;;0.00;99.90;;;;;;5037402;28;21325;-66
2024/01/16 05:18:09;;;;;;;4.80;0.83;;;0.00;99.90;;;;;;5039723;28;20288;-66
2024/01/16 05:20:36;;;;;;;3.30;0.80;;;0.70;99.90;;;;;;5026164;28;20412;-66
2024/01/16 05:23:03;;;;;;;1.07;0.80;;;-0.20;99.90;;;;;;5034855;28;20205;-66
2024/01/16 05:25:29;;;;;;;1.03;0.53;;;-1.60;99.90;;;;;;5009573;28;20829;-67
2024/01/16 05:27:56;;;;;;;3.30;1.07;;;0.00;99.90;;;;;;5040147;28;20208;-67
2024/01/16 05:30:23;;;;;;;1.93;0.57;;;0.00;99.90;;;;;;5031070;28;20575;-66
2024/01/16 05:32:52;;;;;;;1.63;1.00;;;-0.10;99.90;;;;;;5025270;28;20201;-66
2024/01/16 05:35:19;;;;;;;2.53;0.57;;;-0.10;99.90;;;;;;5024521;28;20310;-66
2024/01/16 05:37:46;;;;;;;5.33;1.07;;;0.00;99.90;;;;;;5023321;28;20236;-65
2024/01/16 05:40:13;;;;;;;2.97;0.77;;;;;;;;;;4995930;28;20236;-66
2024/01/16 05:42:40;;;;;;;1.43;0.60;;;0.70;99.90;;;;;;5026250;28;20332;-66
2024/01/16 05:45:08;;;;;;;3.30;0.60;;;0.00;99.90;;;;;;5028458;28;20209;-66
2024/01/16 05:47:34;;;;;;;2.13;1.17;;;0.10;99.90;;;;;;5017526;28;20225;-66
2024/01/16 05:50:04;;;;;;;3.80;1.00;;;0.70;99.90;;;;;;5026632;28;20290;-66
2024/01/16 05:52:30;;;;;;;0.83;0.77;;;0.10;99.90;;;;;;5034390;28;20299;-66
2024/01/16 05:54:59;;;;;;;2.57;0.83;;;0.10;99.90;;;;;;5035501;28;20196;-66
2024/01/16 05:57:26;;;;;;;2.63;0.90;;;0.10;99.90;;;;;;5009730;28;20220;-66
2024/01/16 05:59:53;;;;;;;2.57;0.60;;;0.70;99.90;;;;;;5027971;28;20199;-66
2024/01/16 06:02:20;;;;;;;3.33;1.27;;;0.40;99.90;;;;;;5026161;28;20344;-66
2024/01/16 06:04:47;;;;;;;2.63;1.00;;;0.30;99.90;;;;;;5020691;28;20986;-66
2024/01/16 06:07:15;;;;;;;1.17;1.07;;;0.30;99.90;;;;;;5012767;28;20228;-66
2024/01/16 06:09:42;;;;;;;2.20;1.17;;;-0.70;99.90;;;;;;5026095;28;20220;-66
2024/01/16 06:12:09;;;;;;;5.37;0.87;;;0.30;99.90;;;;;;5007242;28;22377;-67
2024/01/16 06:14:36;;;;;;;2.50;0.70;;;-0.10;99.90;;;;;;5034248;28;20196;-66
2024/01/16 06:17:05;;;;;;;2.07;1.00;;;-0.50;99.90;;;;;;5035554;28;20198;-66
2024/01/16 06:19:32;;;;;;;2.00;0.67;;;0.50;99.90;;;;;;5030023;28;20340;-66
2024/01/16 06:21:59;;;;;;;2.40;0.83;;;0.80;99.90;;;;;;5013330;28;20314;-66
2024/01/16 06:24:27;;;;;;;8.83;1.10;;;0.90;99.90;;;;;;5018177;28;20705;-66
2024/01/16 06:26:54;;;;;;;1.80;0.80;;;0.60;99.90;;;;;;4983949;28;20228;-66
2024/01/16 06:29:21;;;;;;;1.93;0.80;;;0.50;99.90;;;;;;5019914;28;21029;-66
2024/01/16 06:31:49;;;;;;;1.13;0.77;;;;;;;;;;5028811;28;20630;-66
2024/01/16 06:34:16;;;;;;;2.70;1.00;;;0.10;99.90;;;;;;5020234;28;20233;-66
2024/01/16 06:36:43;;;;;;;11.20;1.60;;;;;;;;;;5019289;28;20953;-65
2024/01/16 06:39:13;;;;;;;1.30;0.83;;;0.10;99.90;;;;;;5032090;28;20227;-66
2024/01/16 06:41:41;;;;;;;5.60;1.00;;;1.00;99.90;;;;;;5027264;28;20230;-66
2024/01/16 06:44:08;;;;;;;4.50;0.70;;;1.00;99.90;;;;;;5002101;28;20209;-66
2024/01/16 06:46:35;;;;;;;1.00;0.80;;;0.90;99.90;;;;;;5038401;28;20230;-66
2024/01/16 06:49:02;;;;;;;1.80;0.80;;;0.60;99.90;;;;;;5025498;28;20417;-66
2024/01/16 06:51:30;;;;;;;3.97;1.10;;;0.60;99.90;;;;;;5040942;28;20201;-66
2024/01/16 06:53:56;;;;;;;0.53;0.53;;;0.90;99.90;;;;;;5024490;28;20387;-67
2024/01/16 06:56:24;;;;;;;1.93;1.10;;;0.40;99.90;;;;;;5027176;28;20212;-67
2024/01/16 06:58:52;;;;;;;3.47;1.27;;;0.60;99.90;;;;;;4980150;28;20634;-66
2024/01/16 07:01:19;;;;;;;3.83;1.20;;;0.30;99.90;;;;;;5028967;28;20868;-66
2024/01/16 07:03:46;;;;;;;2.17;1.20;;;0.10;99.90;;;;;;5021086;28;20635;-66
2024/01/16 07:06:14;;;;;;;4.17;1.60;;;0.00;99.90;;;;;;5031152;28;20225;-65
2024/01/16 07:08:41;;;;;;;3.90;1.40;;;-0.40;99.90;;;;;;5017450;28;20433;-66
2024/01/16 07:11:12;;;;;;;2.43;0.90;;;0.00;99.90;;;;;;5022021;28;20265;-66
2024/01/16 07:13:39;;;;;;;4.17;1.33;;;0.30;99.90;;;;;;5015931;28;20204;-66
2024/01/16 07:16:10;;;;;;;3.07;1.13;;;-0.10;99.90;;;;;;5013693;28;20505;-66
2024/01/16 07:18:36;;;;;;;6.97;1.93;;;-0.20;99.90;;;;;;5028019;28;20206;-66
2024/01/16 07:21:04;;;;;;;6.00;2.03;;;-0.10;99.90;;;;;;5020747;28;20237;-66
2024/01/16 07:23:31;;;;;;;1.83;1.30;;;-0.20;99.90;;;;;;5025854;28;20226;-66
2024/01/16 07:25:58;;;;;;;2.47;1.20;;;-0.20;99.90;;;;;;5010680;28;20330;-66
2024/01/16 07:28:24;;;;;;;1.30;1.00;;;-0.20;99.90;;;;;;5018096;28;21107;-66
2024/01/16 07:30:54;;;;;;;2.43;1.10;;;0.00;99.90;;;;;;4984280;28;20263;-66
2024/01/16 07:33:22;;;;;;;6.53;1.67;;;-0.10;99.90;;;;;;5028593;28;20455;-66
2024/01/16 07:35:49;;;;;;;2.30;1.40;;;-0.10;99.90;;;;;;5009582;28;20607;-65
2024/01/16 07:38:16;;;;;;;4.40;1.70;;;0.10;99.90;;;;;;5018440;28;20330;-65
2024/01/16 07:40:43;;;;;;;5.57;2.33;;;0.10;99.90;;;;;;5002068;28;20668;-65
2024/01/16 07:43:10;;;;;;;6.23;2.43;;;0.10;99.90;;;;;;5019487;28;20226;-65
2024/01/16 07:45:37;;;;;;;2.20;1.17;;;0.00;99.90;;;;;;4981320;28;20226;-66
2024/01/16 07:48:04;;;;;;;2.47;1.20;;;1.10;99.90;;;;;;5026188;28;20431;-65
2024/01/16 07:50:33;;;;;;;4.77;1.20;;;0.00;99.90;;;;;;5027404;28;20761;-65
2024/01/16 07:52:59;;;;;;;3.93;1.13;;;0.00;99.90;;;;;;5034936;28;20596;-66
2024/01/16 07:55:26;;;;;;;2.17;0.87;;;0.00;99.90;;;;;;5037407;28;20198;-66
2024/01/16 07:57:55;;;;;;;3.50;1.10;;;0.10;99.90;;;;;;5010709;28;20436;-66
2024/01/16 08:00:22;;;;;;;5.70;1.30;;;0.00;99.90;;;;;;5041410;28;20200;-66
2024/01/16 08:02:49;;;;;;;1.20;1.07;;;0.00;99.90;;;;;;5003617;28;20222;-65
2024/01/16 08:05:16;;;;;;;5.90;1.77;;;0.10;99.90;;;;;;5026192;28;20202;-66
2024/01/16 08:07:45;;;;;;;5.60;2.73;;;0.50;99.90;;;;;;5021800;28;20212;-66
2024/01/16 08:10:11;;;;;;;6.60;2.53;;;0.00;99.90;;;;;;5030959;28;20207;-65
2024/01/16 08:12:38;;;;;;;5.50;1.93;;;0.10;99.90;;;;;;5013075;28;20211;-66
2024/01/16 08:15:07;;;;;;;5.40;1.37;;;0.50;99.90;;;;;;5029958;28;20198;-66
2024/01/16 08:17:34;;;;;;;4.13;1.20;;;0.10;99.90;;;;;;5002105;28;20736;-65
2024/01/16 08:20:01;;;;;;;2.13;1.00;;;0.20;99.90;;;;;;5032304;28;20870;-66
2024/01/16 08:22:28;;;;;;;6.07;1.13;;;;;;;;;;5020879;28;20229;-65
2024/01/16 08:24:56;;;;;;;1.43;0.97;;;0.20;99.90;;;;;;5036927;28;20783;-66
2024/01/16 08:27:23;;;;;;;6.43;1.53;;;0.20;99.90;;;;;;5026071;28;20211;-66
2024/01/16 08:29:50;;;;;;;1.70;1.00;;;0.30;99.90;;;;;;5021542;28;20203;-65
2024/01/16 08:32:17;;;;;;;5.17;1.03;;;0.30;99.90;;;;;;5009222;28;20211;-65
2024/01/16 08:34:44;;;;;;;3.87;0.67;;;0.50;99.90;;;;;;5036513;28;20201;-66
2024/01/16 08:37:10;;;;;;;1.87;0.90;;;0.30;99.90;;;;;;5009392;28;20796;-66
2024/01/16 08:39:37;;;;;;;3.80;0.90;;;0.30;99.90;;;;;;5029248;28;20851;-65
2024/01/16 08:42:06;;;;;;;2.70;1.10;;;0.30;99.90;;;;;;5012523;28;20227;-66
2024/01/16 08:44:33;;;;;;;7.53;1.10;;;0.30;99.90;;;;;;5019010;28;20220;-65
2024/01/16 08:47:02;;;;;;;4.90;1.07;;;0.40;99.90;;;;;;5009781;28;20246;-66
2024/01/16 08:49:28;;;;;;;4.13;1.37;;;0.40;99.90;;;;;;5033795;28;20200;-65
2024/01/16 08:51:55;;;;;;;1.90;0.87;;;0.60;99.90;;;;;;5029831;28;20320;-65
2024/01/16 08:54:23;;;;;;;4.37;1.17;;;0.50;99.90;;;;;;5029908;28;20490;-66
2024/01/16 08:56:50;;;;;;;7.23;1.33;;;0.50;99.90;;;;;;5035962;28;20525;-65
2024/01/16 08:59:18;;;;;;;3.90;1.20;;;0.00;99.90;;;;;;5004374;28;20410;-67
2024/01/16 09:01:45;;;;;;;3.57;1.63;;;0.60;99.90;;;;;;5038184;28;20237;-66
2024/01/16 09:04:12;;;;;;;9.27;1.97;;;0.40;99.90;;;;;;4997191;28;20428;-66
2024/01/16 09:06:39;;;;;;;3.40;1.20;;;1.00;99.90;;;;;;5023019;28;20581;-65
2024/01/16 09:09:06;;;;;;;5.27;1.10;;;0.50;99.90;;;;;;5035311;28;20402;-66
2024/01/16 09:11:33;;;;;;;3.87;1.30;;;0.50;99.90;;;;;;5028033;28;20208;-66
2024/01/16 09:14:00;;;;;;;1.53;1.00;;;0.50;99.90;;;;;;5024608;28;23147;-66
2024/01/16 09:16:28;;;;;;;3.10;1.47;;;0.60;99.90;;;;;;5031630;28;20204;-65
2024/01/16 09:18:55;;;;;;;5.77;1.03;;;0.60;99.90;;;;;;5002432;28;20436;-66
2024/01/16 09:21:22;;;;;;;3.20;1.20;;;0.60;99.90;;;;;;5035640;28;20579;-66
2024/01/16 09:23:49;;;;;;;11.37;2.10;;;0.60;99.90;;;;;;5027562;28;20598;-66
2024/01/16 09:26:17;;;;;;;6.97;1.07;;;0.60;99.90;;;;;;5036390;28;20200;-66
2024/01/16 09:28:44;;;;;;;5.23;1.07;;;0.40;99.90;;;;;;5027521;28;20205;-66
2024/01/16 09:31:11;;;;;;;3.17;1.50;;;0.60;99.90;;;;;;5017234;28;20622;-65
2024/01/16 09:33:39;;;;;;;8.13;1.07;;;0.60;99.90;;;;;;5025792;28;20667;-66
2024/01/16 09:36:06;;;;;;;6.07;1.30;;;0.60;99.90;;;;;;5014143;28;20677;-67
2024/01/16 09:38:33;;;;;;;2.53;1.50;;;0.60;99.90;;;;;;5027273;28;20197;-65
2024/01/16 09:41:02;;;;;;;3.00;1.10;;;0.70;99.90;;;;;;5040731;28;20198;-65
2024/01/16 09:43:31;;;;;;;4.13;1.67;;;0.70;99.90;;;;;;5032017;28;20236;-65
2024/01/16 09:46:02;;;;;;;3.03;1.33;;;0.80;99.90;;;;;;5008155;28;20368;-66
2024/01/16 09:48:29;;;;;;;2.70;1.13;;;0.80;99.90;;;;;;5021146;28;20203;-67
2024/01/16 09:50:58;;;;;;;1.97;1.20;;;0.80;99.90;;;;;;5005247;28;20208;-66
2024/01/16 09:53:25;;;;;;;1.90;0.83;;;0.90;99.90;;;;;;5028416;28;20197;-67
2024/01/16 09:55:55;;;;;;;3.00;1.10;;;0.90;99.90;;;;;;5040464;28;20199;-66
2024/01/16 09:58:22;;;;;;;2.87;1.27;;;0.90;99.90;;;;;;5029285;28;20226;-66
2024/01/16 10:00:49;;;;;;;1.60;1.27;;;0.90;99.90;;;;;;5028115;28;20197;-66
2024/01/16 10:03:17;;;;;;;2.83;1.10;;;0.90;99.90;;;;;;5024337;28;20559;-65
2024/01/16 10:05:45;;;;;;;3.40;1.07;;;1.00;99.90;;;;;;5010873;28;21025;-66
2024/01/16 10:08:13;;;;;;;5.70;2.67;;;1.00;99.90;;;;;;5024086;28;20220;-66
2024/01/16 10:10:40;;;;;;;2.87;1.87;;;1.00;99.90;;;;;;5029181;28;20192;-66
2024/01/16 10:13:08;;;;;;;5.70;1.93;;;1.00;99.90;;;;;;5026123;28;20310;-66
2024/01/16 10:15:35;;;;;;;1.83;1.10;;;;;;;;;;5030390;28;20714;-66
2024/01/16 10:18:02;;;;;;;5.13;1.23;;;1.00;99.90;;;;;;5016249;28;20296;-65
2024/01/16 10:20:36;;;;;;;2.70;1.50;;;1.00;99.90;;;;;;5004891;28;20212;-65
2024/01/16 10:23:04;;;;;;;6.83;1.77;;;1.10;99.90;;;;;;5037806;28;20706;-66
2024/01/16 10:25:33;;;;;;;3.10;1.33;;;1.00;99.90;;;;;;5025659;28;20209;-66
2024/01/16 10:28:07;;;;;;;5.20;1.50;;;1.10;99.90;;;;;;5036884;28;20215;-66
2024/01/16 10:30:34;;;;;;;3.83;1.67;;;;;;;;;;5024675;28;20237;-66
2024/01/16 10:33:16;;;;;;;1.47;1.10;;;1.00;99.90;;;;;;5021916;28;20400;-65
2024/01/16 10:35:43;;;;;;;2.97;1.23;;;1.20;99.90;;;;;;5013748;28;20205;-65
2024/01/16 10:38:09;;;;;;;2.10;1.30;;;1.10;99.90;;;;;;5039801;28;20208;-65
2024/01/16 10:40:38;;;;;;;4.17;1.40;;;1.70;99.90;;;;;;5032239;28;20201;-65
2024/01/16 10:43:05;;;;;;;4.60;1.67;;;1.20;99.90;;;;;;5023884;28;20426;-66
2024/01/16 10:45:33;;;;;;;4.20;1.87;;;1.20;99.90;;;;;;5022978;28;20239;-65
2024/01/16 10:48:03;;;;;;;4.83;1.53;;;1.20;99.90;;;;;;5018978;28;21222;-66
2024/01/16 10:50:30;;;;;;;3.07;2.27;;;1.40;99.90;;;;;;5038954;28;20202;-66
2024/01/16 10:53:00;;;;;;;6.20;2.53;;;2.10;99.90;;;;;;5004056;28;20509;-66
2024/01/16 10:55:29;;;;;;;9.73;2.67;;;2.10;99.90;;;;;;5029231;28;20203;-66
2024/01/16 10:57:59;;;;;;;4.63;1.80;;;1.30;99.90;;;;;;5025889;28;20398;-66
2024/01/16 11:00:26;;;;;;;8.17;2.30;;;1.30;99.90;;;;;;5038716;28;20194;-66
2024/01/16 11:03:01;;;;;;;8.97;2.17;;;1.30;99.90;;;;;;4996233;28;23859;-66
2024/01/16 11:05:31;;;;;;;5.97;1.87;;;1.30;99.90;;;;;;5036412;28;20194;-66
2024/01/16 11:08:02;;;;;;;3.77;2.10;;;1.30;99.90;;;;;;5004172;28;20613;-66
2024/01/16 11:10:29;;;;;;;7.63;2.40;;;1.80;99.90;;;;;;5034294;28;20225;-65
2024/01/16 11:13:01;;;;;;;10.37;1.87;;;1.30;99.90;;;;;;5022673;28;20591;-66
2024/01/16 11:15:29;;;;;;;8.77;2.07;;;1.40;99.90;;;;;;5032396;28;20724;-65
2024/01/16 11:17:57;;;;;;;1.53;1.33;;;1.30;99.90;;;;;;5016611;28;21164;-65
2024/01/16 11:20:25;;;;;;;3.87;2.20;;;1.30;99.90;;;;;;5034145;28;20628;-66
2024/01/16 11:22:55;;;;;;;6.13;2.20;;;1.40;99.90;;;;;;5005173;28;20262;-66
2024/01/16 11:25:31;;;;;;;5.63;1.87;;;2.50;99.90;;;;;;5041305;28;20196;-66
2024/01/16 11:28:09;;;;;;;6.10;2.53;;;1.50;99.90;;;;;;5030576;28;20977;-66
2024/01/16 11:30:36;;;;;;;7.47;2.10;;;1.50;99.90;;;;;;5044131;28;20199;-66
2024/01/16 11:33:04;;;;;;;7.20;2.30;;;1.50;99.90;;;;;;5017446;28;20933;-66
2024/01/16 11:35:36;;;;;;;4.27;2.43;;;1.50;99.90;;;;;;5033814;28;20239;-66
2024/01/16 11:38:09;;;;;;;4.83;2.20;;;1.50;99.90;;;;;;5035678;28;20217;-66
2024/01/16 11:40:36;;;;;;;4.57;2.00;;;0.10;99.90;;;;;;5001964;28;20202;-65
2024/01/16 11:43:38;;;;;;;3.53;1.73;;;1.50;99.90;;;;;;5034928;28;20229;-66
2024/01/16 11:46:06;;;;;;;6.07;2.23;;;1.50;99.90;;;;;;5037542;28;20781;-66
2024/01/16 11:48:32;;;;;;;5.50;2.00;;;2.30;99.90;;;;;;5028097;28;20325;-66
2024/01/16 11:50:59;;;;;;;4.30;2.23;;;1.50;99.90;;;;;;5030882;28;20208;-66
2024/01/16 11:53:40;;;;;;;5.17;2.43;;;1.40;99.90;;;;;;5042052;28;20216;-66
2024/01/16 11:56:32;;;;;;;6.20;2.13;;;1.40;99.90;;;;;;5038513;28;20610;-66
2024/01/16 11:59:19;;;;;;;2.07;1.53;;;1.40;99.90;;;;;;5028914;28;20782;-65
2024/01/16 12:01:47;;;;;;;6.57;1.60;;;;;;;;;;5006898;28;20880;-65
2024/01/16 12:04:18;;;;;;;3.40;1.70;;;1.60;99.90;;;;;;4976040;28;20471;-67
2024/01/16 12:06:44;;;;;;;4.53;2.37;;;1.80;99.90;;;;;;5004189;28;20822;-66
2024/01/16 12:09:15;;;;;;;11.13;2.20;;;1.50;99.90;;;;;;4993581;28;20237;-66
2024/01/16 12:11:43;;;;;;;4.23;2.13;;;1.50;99.90;;;;;;5030629;28;20368;-66
2024/01/16 12:14:11;;;;;;;5.37;2.27;;;0.70;99.90;;;;;;5031972;28;20222;-66
2024/01/16 12:16:38;;;;;;;3.97;2.13;;;1.40;99.90;;;;;;5012399;28;20710;-66
2024/01/16 12:19:06;;;;;;;6.40;2.50;;;1.50;99.90;;;;;;5003255;28;20904;-66
2024/01/16 12:21:35;;;;;;;4.03;2.10;;;1.50;99.90;;;;;;5004245;28;20211;-66
2024/01/16 12:24:03;;;;;;;3.83;2.17;;;1.50;99.90;;;;;;5027967;28;20864;-66
2024/01/16 12:26:31;;;;;;;3.40;2.57;;;1.40;99.90;;;;;;5002461;28;20267;-66
2024/01/16 12:28:59;;;;;;;5.17;3.70;;;1.40;99.90;;;;;;5029989;28;20222;-66
2024/01/16 12:31:28;;;;;;;9.27;2.40;;;1.40;99.90;;;;;;5020404;28;20220;-66
2024/01/16 12:33:56;;;;;;;2.77;2.20;;;-0.30;99.90;;;;;;5028478;28;20224;-66
2024/01/16 12:36:23;;;;;;;3.77;1.90;;;1.50;99.90;;;;;;5014234;28;20234;-67
2024/01/16 12:38:56;;;;;;;6.23;2.07;;;1.50;99.90;;;;;;5010533;28;20338;-66
2024/01/16 12:41:25;;;;;;;8.33;2.10;;;1.50;99.90;;;;;;4993406;28;20776;-66
2024/01/16 12:43:52;;;;;;;5.40;2.30;;;1.60;99.90;;;;;;5035169;28;20586;-67
2024/01/16 12:46:19;;;;;;;2.63;2.07;;;1.50;99.90;;;;;;5004693;28;20227;-66
2024/01/16 12:48:48;;;;;;;3.57;1.90;;;1.50;99.90;;;;;;5036731;28;20200;-66
2024/01/16 12:51:22;;;;;;;5.30;2.17;;;1.50;99.90;;;;;;5014343;28;20214;-66
2024/01/16 12:53:49;;;;;;;5.93;2.37;;;1.60;99.90;;;;;;5025723;28;20205;-66
2024/01/16 12:56:19;;;;;;;5.50;2.03;;;1.50;99.90;;;;;;5010852;28;20216;-66
2024/01/16 12:58:47;;;;;;;4.43;2.60;;;1.60;99.90;;;;;;5042859;28;20281;-66
2024/01/16 13:01:24;;;;;;;3.03;1.93;;;1.60;99.90;;;;;;5035424;28;20204;-66